createdAt,value
2022-11-25T00:01:34.276Z,5.40
2022-11-25T00:04:01.912Z,3.43
2022-11-25T00:06:34.775Z,6.87
2022-11-25T00:09:09.846Z,3.83
2022-11-25T00:11:39.600Z,3.67
2022-11-25T00:14:12.006Z,4.77
2022-11-25T00:16:42.577Z,4.37
2022-11-25T00:19:15.695Z,4.40
2022-11-25T00:21:42.831Z,5.20
2022-11-25T00:24:13.590Z,4.60
2022-11-25T00:26:40.716Z,4.80
2022-11-25T00:29:11.020Z,4.23
2022-11-25T00:31:40.810Z,5.97
2022-11-25T00:34:13.686Z,3.87
2022-11-25T00:36:41.330Z,6.93
2022-11-25T00:39:17.724Z,3.33
2022-11-25T00:42:05.011Z,3.53
2022-11-25T00:44:42.397Z,4.23
2022-11-25T00:47:11.592Z,4.20
2022-11-25T00:49:41.337Z,2.83
2022-11-25T00:52:10.494Z,3.47
2022-11-25T00:54:37.973Z,3.17
2022-11-25T00:57:06.076Z,3.33
2022-11-25T00:59:33.269Z,3.73
2022-11-25T01:02:01.526Z,4.10
2022-11-25T01:04:28.856Z,6.67
2022-11-25T01:07:00.068Z,3.77
2022-11-25T01:09:28.473Z,4.17
2022-11-25T01:11:55.785Z,5.53
2022-11-25T01:14:23.670Z,3.30
2022-11-25T01:16:52.087Z,5.97
2022-11-25T01:19:21.235Z,4.50
2022-11-25T01:21:48.471Z,2.83
2022-11-25T01:24:16.789Z,4.93
2022-11-25T01:26:45.255Z,4.37
2022-11-25T01:29:18.781Z,3.83
2022-11-25T01:31:48.621Z,3.53
2022-11-25T01:34:21.953Z,2.63
2022-11-25T01:36:49.554Z,2.63
2022-11-25T01:39:21.115Z,2.80
2022-11-25T01:41:49.617Z,2.47
2022-11-25T01:44:23.279Z,3.73
2022-11-25T01:47:15.384Z,1.90
2022-11-25T01:50:04.630Z,2.80
2022-11-25T01:52:36.544Z,3.57
2022-11-25T01:55:17.889Z,3.83
2022-11-25T01:57:53.969Z,3.17
2022-11-25T02:00:22.080Z,5.80
2022-11-25T02:02:51.694Z,2.90
2022-11-25T02:05:22.183Z,4.73
2022-11-25T02:07:51.340Z,2.90
2022-11-25T02:10:25.726Z,2.73
2022-11-25T02:12:53.983Z,4.30
2022-11-25T02:15:22.294Z,4.83
2022-11-25T02:17:49.889Z,6.47
2022-11-25T02:20:20.651Z,5.40
2022-11-25T02:22:51.120Z,4.83
2022-11-25T02:25:25.677Z,7.10
2022-11-25T02:28:10.845Z,5.63
2022-11-25T02:30:39.191Z,5.57
2022-11-25T02:33:07.217Z,8.60
2022-11-25T02:35:40.046Z,5.83
2022-11-25T02:38:15.904Z,7.33
2022-11-25T02:41:02.293Z,5.67
2022-11-25T02:43:29.605Z,7.93
2022-11-25T02:46:04.699Z,6.20
2022-11-25T02:49:06.792Z,10.13
2022-11-25T02:51:25.824Z,7.77
2022-11-25T02:53:54.160Z,7.17
2022-11-25T02:56:29.118Z,6.47
2022-11-25T02:58:56.664Z,10.70
2022-11-25T03:01:26.772Z,5.57
2022-11-25T03:03:58.606Z,9.10
2022-11-25T03:06:29.001Z,9.30
2022-11-25T03:08:57.110Z,7.43
2022-11-25T03:11:45.718Z,7.70
2022-11-25T03:14:21.914Z,7.00
2022-11-25T03:16:49.730Z,9.90
2022-11-25T03:19:16.987Z,8.13
2022-11-25T03:21:45.197Z,6.27
2022-11-25T03:24:12.377Z,7.33
2022-11-25T03:26:41.533Z,8.30
2022-11-25T03:29:08.963Z,8.43
2022-11-25T03:31:37.283Z,8.50
2022-11-25T03:34:04.511Z,10.60
2022-11-25T03:36:31.902Z,9.30
2022-11-25T03:39:00.221Z,8.43
2022-11-25T03:41:29.286Z,8.70
2022-11-25T03:43:56.982Z,11.57
2022-11-25T03:46:24.421Z,11.73
2022-11-25T03:48:55.312Z,12.13
2022-11-25T03:51:24.862Z,10.03
2022-11-25T03:53:54.151Z,9.57
2022-11-25T03:56:22.871Z,8.00
2022-11-25T03:58:50.951Z,9.43
2022-11-25T04:01:20.148Z,9.20
2022-11-25T04:03:48.450Z,9.10
2022-11-25T04:06:16.357Z,9.60
2022-11-25T04:08:44.559Z,10.13
2022-11-25T04:11:12.472Z,9.60
2022-11-25T04:13:46.232Z,8.70
2022-11-25T04:16:25.224Z,6.47
2022-11-25T04:18:54.767Z,8.40
2022-11-25T04:21:21.931Z,7.30
2022-11-25T04:23:50.119Z,6.43
2022-11-25T04:26:18.331Z,15.90
2022-11-25T04:28:45.652Z,17.00
2022-11-25T04:31:13.899Z,17.70
2022-11-25T04:33:45.950Z,10.53
2022-11-25T04:36:16.007Z,6.80
2022-11-25T04:38:44.452Z,8.03
2022-11-25T04:41:12.342Z,9.67
2022-11-25T04:43:47.109Z,8.73
2022-11-25T04:46:19.066Z,8.17
2022-11-25T04:48:50.121Z,8.60
2022-11-25T04:51:17.705Z,8.33
2022-11-25T04:53:46.832Z,11.43
2022-11-25T04:56:20.325Z,8.57
2022-11-25T04:59:08.991Z,10.27
2022-11-25T05:01:40.592Z,9.87
2022-11-25T05:04:19.852Z,11.03
2022-11-25T05:06:47.636Z,11.83
2022-11-25T05:09:15.447Z,11.30
2022-11-25T05:11:45.642Z,11.07
2022-11-25T05:14:13.575Z,9.10
2022-11-25T05:16:41.807Z,17.00
2022-11-25T05:19:11.491Z,11.13
2022-11-25T05:21:40.147Z,14.30
2022-11-25T05:24:07.492Z,12.83
2022-11-25T05:26:36.147Z,12.97
2022-11-25T05:29:03.836Z,10.43
2022-11-25T05:31:33.368Z,10.67
2022-11-25T05:34:02.364Z,12.53
2022-11-25T05:36:32.244Z,11.20
2022-11-25T05:39:00.702Z,10.67
2022-11-25T05:41:51.856Z,10.83
2022-11-25T05:44:23.126Z,11.90
2022-11-25T05:46:54.311Z,11.07
2022-11-25T05:49:22.166Z,8.17
2022-11-25T05:51:50.946Z,12.17
2022-11-25T05:54:21.020Z,10.30
2022-11-25T05:56:48.276Z,11.53
2022-11-25T05:59:33.065Z,14.40
2022-11-25T06:02:15.045Z,10.43
2022-11-25T06:04:42.341Z,12.70
2022-11-25T06:07:10.538Z,9.40
2022-11-25T06:09:39.786Z,13.23
2022-11-25T06:12:08.196Z,11.60
2022-11-25T06:14:44.451Z,9.47
2022-11-25T06:17:11.700Z,11.47
2022-11-25T06:19:48.088Z,10.10
2022-11-25T06:22:16.906Z,13.03
2022-11-25T06:24:48.909Z,12.37
2022-11-25T06:27:23.562Z,10.07
2022-11-25T06:29:51.680Z,13.30
2022-11-25T06:32:19.971Z,10.27
2022-11-25T06:34:59.122Z,10.77
2022-11-25T06:37:37.487Z,16.03
2022-11-25T06:40:06.001Z,14.67
2022-11-25T06:42:34.566Z,18.17
2022-11-25T06:45:02.797Z,18.13
2022-11-25T06:47:31.050Z,16.23
2022-11-25T06:49:58.402Z,15.60
2022-11-25T06:52:25.623Z,17.83
2022-11-25T06:54:53.865Z,15.90
2022-11-25T06:57:21.075Z,17.70
2022-11-25T06:59:48.361Z,16.73
2022-11-25T07:02:15.611Z,14.47
2022-11-25T07:04:42.876Z,19.83
2022-11-25T07:07:10.630Z,15.80
2022-11-25T07:09:37.749Z,17.47
2022-11-25T07:12:06.115Z,15.13
2022-11-25T07:14:33.396Z,18.27
2022-11-25T07:17:00.640Z,21.43
2022-11-25T07:19:27.865Z,17.63
2022-11-25T07:21:55.127Z,15.03
2022-11-25T07:24:22.319Z,14.87
2022-11-25T07:26:49.516Z,13.97
2022-11-25T07:29:44.375Z,16.30
2022-11-25T07:32:10.286Z,14.53
2022-11-25T07:34:38.579Z,16.00
2022-11-25T07:37:05.696Z,15.77
2022-11-25T07:39:34.876Z,20.73
2022-11-25T07:42:02.405Z,23.43
2022-11-25T07:44:31.917Z,23.37
2022-11-25T07:47:09.471Z,16.67
2022-11-25T07:49:38.127Z,25.87
2022-11-25T07:52:05.875Z,21.17
2022-11-25T07:54:34.030Z,17.70
2022-11-25T07:57:01.272Z,15.10
2022-11-25T07:59:29.737Z,17.03
2022-11-25T08:01:57.949Z,13.93
2022-11-25T08:04:26.113Z,13.43
2022-11-25T08:06:54.452Z,15.47
2022-11-25T08:09:23.937Z,13.50
2022-11-25T08:11:52.865Z,15.40
2022-11-25T08:14:20.785Z,12.47
2022-11-25T08:16:48.948Z,15.30
2022-11-25T08:19:18.113Z,10.60
2022-11-25T08:21:49.553Z,11.57
2022-11-25T08:24:19.793Z,9.67
2022-11-25T08:26:49.451Z,10.63
2022-11-25T08:29:19.292Z,12.17
2022-11-25T08:31:48.690Z,12.73
2022-11-25T08:34:20.153Z,10.63
2022-11-25T08:36:49.291Z,11.37
2022-11-25T08:42:10.028Z,13.37
2022-11-25T08:44:38.222Z,10.47
2022-11-25T08:47:06.537Z,10.83
2022-11-25T08:49:40.412Z,13.00
2022-11-25T08:52:12.633Z,10.70
2022-11-25T08:54:39.878Z,13.20
2022-11-25T08:57:07.357Z,10.33
2022-11-25T08:59:35.367Z,12.53
2022-11-25T09:02:03.261Z,12.53
2022-11-25T09:04:31.902Z,14.13
2022-11-25T09:06:59.397Z,10.43
2022-11-25T09:09:27.986Z,12.57
2022-11-25T09:11:55.297Z,10.80
2022-11-25T09:14:23.523Z,10.57
2022-11-25T09:16:51.740Z,10.63
2022-11-25T09:19:20.394Z,8.00
2022-11-25T09:21:48.703Z,9.60
2022-11-25T09:24:18.038Z,12.13
2022-11-25T09:26:45.503Z,7.83
2022-11-25T09:29:14.253Z,8.63
2022-11-25T09:31:43.599Z,9.43
2022-11-25T09:34:10.726Z,10.27
2022-11-25T09:36:38.121Z,11.27
2022-11-25T09:39:06.019Z,11.07
2022-11-25T09:42:10.961Z,7.80
2022-11-25T09:45:36.920Z,9.60
2022-11-25T09:48:34.903Z,10.07
2022-11-25T09:51:25.109Z,10.37
2022-11-25T09:53:57.181Z,10.27
2022-11-25T09:56:44.900Z,10.37
2022-11-25T09:59:29.595Z,10.80
2022-11-25T10:02:12.356Z,10.70
2022-11-25T10:04:51.083Z,8.93
2022-11-25T10:07:36.389Z,10.20
2022-11-25T10:10:07.926Z,9.03
2022-11-25T10:12:42.616Z,7.27
2022-11-25T10:15:34.491Z,7.27
2022-11-25T10:18:06.788Z,8.40
2022-11-25T10:20:39.298Z,13.10
2022-11-25T10:23:19.777Z,8.60
2022-11-25T10:25:57.139Z,10.67
2022-11-25T10:28:30.234Z,8.90
2022-11-25T10:31:06.512Z,10.67
2022-11-25T10:33:40.170Z,8.70
2022-11-25T10:36:26.048Z,8.43
2022-11-25T10:39:15.218Z,9.23
2022-11-25T10:42:03.508Z,11.27
2022-11-25T10:44:40.761Z,8.63
2022-11-25T10:47:35.053Z,8.83
2022-11-25T10:50:33.636Z,9.03
2022-11-25T10:53:24.566Z,7.60
2022-11-25T10:55:58.870Z,8.40
2022-11-25T10:58:40.686Z,7.80
2022-11-25T11:01:22.118Z,6.83
2022-11-25T11:04:03.478Z,9.70
2022-11-25T11:06:35.650Z,9.07
2022-11-25T11:09:03.813Z,7.83
2022-11-25T11:11:32.650Z,6.67
2022-11-25T11:14:14.159Z,6.33
2022-11-25T11:16:45.706Z,7.03
2022-11-25T11:19:26.966Z,7.50
2022-11-25T11:21:56.720Z,5.07
2022-11-25T11:24:32.331Z,6.57
2022-11-25T11:27:23.899Z,8.57
2022-11-25T11:30:24.046Z,4.77
2022-11-25T11:33:05.596Z,4.70
2022-11-25T11:35:48.919Z,5.47
2022-11-25T11:38:27.980Z,5.87
2022-11-25T11:41:20.572Z,9.07
2022-11-25T11:44:08.839Z,4.90
2022-11-25T11:46:56.723Z,5.03
2022-11-25T11:50:11.011Z,5.00
2022-11-25T11:52:45.470Z,4.88
2022-11-25T11:55:37.008Z,7.63
2022-11-25T11:58:22.529Z,5.25
2022-11-25T12:01:21.000Z,4.47
2022-11-25T12:04:00.899Z,6.82
2022-11-25T12:06:31.971Z,4.68
2022-11-25T12:09:15.872Z,4.78
2022-11-25T12:11:48.946Z,4.90
2022-11-25T12:15:02.499Z,3.83
2022-11-25T12:17:41.624Z,7.45
2022-11-25T12:20:43.437Z,9.85
2022-11-25T12:23:21.342Z,5.17
2022-11-25T12:25:52.783Z,6.93
2022-11-25T12:28:34.348Z,6.27
2022-11-25T12:31:22.450Z,5.77
2022-11-25T12:34:17.983Z,4.77
2022-11-25T12:36:49.964Z,6.80
2022-11-25T12:39:31.993Z,5.17
2022-11-25T12:42:02.734Z,6.03
2022-11-25T12:45:05.056Z,4.53
2022-11-25T12:47:33.671Z,5.27
2022-11-25T12:50:01.322Z,5.93
2022-11-25T12:52:51.855Z,5.47
2022-11-25T12:55:24.712Z,5.00
2022-11-25T12:58:11.577Z,5.53
2022-11-25T13:00:54.021Z,7.37
2022-11-25T13:03:41.244Z,7.03
2022-11-25T13:06:29.128Z,4.37
2022-11-25T13:09:25.532Z,5.23
2022-11-25T13:12:01.080Z,6.27
2022-11-25T13:14:46.497Z,3.93
2022-11-25T13:17:16.296Z,3.43
2022-11-25T13:19:45.923Z,6.73
2022-11-25T13:22:22.443Z,4.27
2022-11-25T13:24:50.723Z,7.07
2022-11-25T13:27:54.052Z,7.60
2022-11-25T13:30:33.591Z,9.23
2022-11-25T13:33:12.872Z,5.27
2022-11-25T13:35:46.243Z,4.27
2022-11-25T13:38:37.564Z,3.60
2022-11-25T13:41:25.102Z,5.83
2022-11-25T13:44:01.608Z,4.43
2022-11-25T13:46:40.047Z,7.43
2022-11-25T13:49:24.341Z,5.47
2022-11-25T13:52:15.592Z,7.30
2022-11-25T13:54:56.016Z,5.87
2022-11-25T13:57:34.302Z,8.07
2022-11-25T14:00:35.052Z,6.53
2022-11-25T14:03:21.784Z,10.10
2022-11-25T14:05:59.651Z,8.60
2022-11-25T14:08:51.363Z,5.53
2022-11-25T14:11:36.241Z,8.70
2022-11-25T14:14:49.707Z,6.50
2022-11-25T14:17:26.409Z,9.03
2022-11-25T14:20:17.033Z,11.30
2022-11-25T14:23:22.851Z,11.53
2022-11-25T14:25:56.123Z,9.87
2022-11-25T14:28:50.153Z,9.37
2022-11-25T14:31:22.752Z,8.37
2022-11-25T14:33:59.602Z,9.20
2022-11-25T14:36:46.172Z,14.10
2022-11-25T14:39:58.753Z,11.93
2022-11-25T14:42:32.504Z,13.03
2022-11-25T14:45:00.097Z,13.80
2022-11-25T14:47:39.091Z,10.47
2022-11-25T14:53:09.644Z,14.40
2022-11-25T14:55:38.516Z,11.67
2022-11-25T14:58:05.977Z,10.47
2022-11-25T15:00:34.342Z,12.90
2022-11-25T15:03:06.652Z,12.67
2022-11-25T15:05:39.872Z,11.40
2022-11-25T15:08:08.181Z,11.53
2022-11-25T15:10:59.431Z,12.47
2022-11-25T15:13:39.924Z,13.00
2022-11-25T15:16:22.645Z,13.87
2022-11-25T15:18:56.301Z,14.70
2022-11-25T15:21:32.801Z,12.80
2022-11-25T15:24:01.153Z,14.90
2022-11-25T15:26:31.861Z,11.00
2022-11-25T15:29:11.713Z,12.20
2022-11-25T15:31:42.258Z,10.13
2022-11-25T15:34:13.652Z,12.47
2022-11-25T15:36:41.472Z,13.13
2022-11-25T15:39:23.523Z,14.93
2022-11-25T15:42:26.622Z,10.33
2022-11-25T15:45:00.540Z,13.40
2022-11-25T15:47:33.243Z,10.33
2022-11-25T15:50:08.064Z,11.07
2022-11-25T15:52:47.105Z,9.77
2022-11-25T15:55:37.024Z,11.20
2022-11-25T15:58:13.994Z,13.10
2022-11-25T16:00:44.124Z,13.53
2022-11-25T16:03:35.755Z,13.03
2022-11-25T16:06:18.782Z,17.17
2022-11-25T16:09:00.742Z,15.80
2022-11-25T16:11:33.823Z,12.13
2022-11-25T16:14:34.412Z,13.97
2022-11-25T16:17:05.007Z,9.40
2022-11-25T16:19:42.818Z,10.07
2022-11-25T16:22:20.336Z,10.67
2022-11-25T16:25:00.437Z,8.90
2022-11-25T16:27:38.262Z,8.47
2022-11-25T16:30:16.893Z,6.30
2022-11-25T16:33:00.433Z,13.23
2022-11-25T16:35:27.692Z,6.73
2022-11-25T16:37:58.443Z,11.13
2022-11-25T16:40:29.851Z,10.27
2022-11-25T16:42:57.273Z,12.57
2022-11-25T16:45:27.615Z,14.43
2022-11-25T16:47:56.132Z,11.20
2022-11-25T16:50:25.414Z,15.57
2022-11-25T16:52:53.659Z,16.33
2022-11-25T16:55:21.222Z,13.20
2022-11-25T16:57:54.486Z,13.73
2022-11-25T17:00:23.902Z,12.03
2022-11-25T17:02:51.133Z,21.27
2022-11-25T17:05:20.203Z,14.70
2022-11-25T17:07:52.657Z,16.30
2022-11-25T17:10:31.442Z,22.57
2022-11-25T17:13:02.143Z,24.70
2022-11-25T17:15:34.535Z,29.60
2022-11-25T17:18:05.003Z,28.43
2022-11-25T17:20:35.157Z,24.03
2022-11-25T17:23:03.872Z,36.43
2022-11-25T17:25:36.856Z,29.57
2022-11-25T17:28:04.804Z,26.50
2022-11-25T17:30:40.606Z,27.10
2022-11-25T17:33:16.243Z,29.33
2022-11-25T17:35:51.708Z,39.77
2022-11-25T17:38:21.493Z,55.77
2022-11-25T17:40:50.592Z,32.37
2022-11-25T17:43:20.609Z,29.17
2022-11-25T17:45:49.923Z,28.23
2022-11-25T17:48:19.004Z,29.50
2022-11-25T17:50:47.562Z,23.23
2022-11-25T17:53:14.614Z,32.50
2022-11-25T17:55:42.435Z,29.77
2022-11-25T17:58:16.906Z,25.17
2022-11-25T18:00:49.546Z,26.57
2022-11-25T18:03:18.888Z,28.60
2022-11-25T18:05:47.922Z,30.97
2022-11-25T18:08:15.256Z,29.30
2022-11-25T18:10:46.091Z,36.97
2022-11-25T18:13:17.211Z,28.90
2022-11-25T18:15:44.899Z,30.97
2022-11-25T18:18:24.538Z,47.13
2022-11-25T18:20:55.963Z,36.43
2022-11-25T18:23:23.453Z,39.40
2022-11-25T18:25:51.787Z,42.73
2022-11-25T18:28:21.999Z,46.00
2022-11-25T18:30:50.886Z,48.10
2022-11-25T18:33:19.498Z,51.50
2022-11-25T18:35:47.700Z,45.80
2022-11-25T18:38:15.100Z,40.23
2022-11-25T18:40:47.621Z,35.27
2022-11-25T18:43:24.898Z,39.63
2022-11-25T18:45:58.216Z,35.60
2022-11-25T18:48:26.805Z,38.70
2022-11-25T18:50:58.086Z,42.17
2022-11-25T18:53:25.842Z,39.20
2022-11-25T18:55:54.631Z,40.07
2022-11-25T18:58:27.144Z,40.30
2022-11-25T19:01:04.087Z,32.63
2022-11-25T19:03:32.062Z,30.07
2022-11-25T19:06:01.982Z,29.97
2022-11-25T19:08:33.332Z,28.63
2022-11-25T19:11:00.601Z,68.53
2022-11-25T19:13:34.672Z,98.77
2022-11-25T19:16:15.468Z,69.53
2022-11-25T19:18:45.903Z,76.60
2022-11-25T19:21:16.692Z,73.83
2022-11-25T19:23:44.030Z,48.37
2022-11-25T19:26:17.851Z,36.93
2022-11-25T19:28:50.292Z,39.63
2022-11-25T19:31:21.338Z,34.07
2022-11-25T19:33:51.729Z,28.87
2022-11-25T19:36:31.422Z,17.83
2022-11-25T19:39:00.104Z,20.60
2022-11-25T19:41:34.127Z,32.57
2022-11-25T19:44:07.738Z,44.87
2022-11-25T19:47:13.918Z,45.00
2022-11-25T19:49:40.893Z,40.77
2022-11-25T19:52:31.141Z,65.90
2022-11-25T19:54:59.312Z,54.83
2022-11-25T19:57:27.712Z,46.30
2022-11-25T19:59:54.981Z,85.00
2022-11-25T20:02:24.633Z,82.73
2022-11-25T20:04:55.302Z,88.17
2022-11-25T20:07:23.140Z,46.30
2022-11-25T20:09:51.723Z,43.50
2022-11-25T20:12:24.248Z,37.07
2022-11-25T20:14:52.990Z,32.90
2022-11-25T20:17:32.171Z,33.63
2022-11-25T20:20:14.162Z,31.63
2022-11-25T20:22:49.691Z,32.10
2022-11-25T20:25:20.511Z,36.97
2022-11-25T20:27:49.111Z,32.40
2022-11-25T20:30:22.784Z,28.40
2022-11-25T20:32:55.932Z,29.23
2022-11-25T20:35:26.040Z,28.00
2022-11-25T20:37:54.543Z,30.20
2022-11-25T20:40:40.231Z,27.37
2022-11-25T20:43:23.773Z,31.83
2022-11-25T20:45:53.423Z,33.33
2022-11-25T20:48:23.104Z,34.30
2022-11-25T20:50:51.782Z,34.33
2022-11-25T20:53:21.820Z,32.97
2022-11-25T20:55:50.801Z,26.80
2022-11-25T20:58:25.247Z,31.00
2022-11-25T21:00:57.831Z,30.53
2022-11-25T21:03:27.129Z,31.43
2022-11-25T21:05:55.892Z,27.67
2022-11-25T21:08:29.292Z,29.33
2022-11-25T21:10:58.860Z,27.90
2022-11-25T21:13:30.174Z,23.17
2022-11-25T21:16:00.569Z,25.00
2022-11-25T21:18:28.801Z,24.23
2022-11-25T21:20:58.592Z,26.23
2022-11-25T21:23:29.269Z,23.70
2022-11-25T21:26:19.227Z,23.13
2022-11-25T21:29:06.320Z,20.67
2022-11-25T21:31:34.757Z,21.43
2022-11-25T21:34:09.145Z,20.50
2022-11-25T21:36:36.747Z,26.33
2022-11-25T21:39:14.288Z,27.77
2022-11-25T21:41:43.691Z,30.17
2022-11-25T21:44:24.333Z,28.07
2022-11-25T21:46:55.763Z,37.23
2022-11-25T21:49:24.406Z,25.40
2022-11-25T21:51:55.072Z,17.53
2022-11-25T21:54:23.332Z,11.60
2022-11-25T21:56:57.982Z,11.87
2022-11-25T21:59:26.610Z,16.43
2022-11-25T22:01:55.606Z,50.47
2022-11-25T22:04:24.313Z,52.97
2022-11-25T22:06:52.576Z,41.67
2022-11-25T22:09:20.052Z,58.73
2022-11-25T22:11:50.520Z,30.30
2022-11-25T22:14:44.710Z,34.90
2022-11-25T22:17:18.301Z,24.27
2022-11-25T22:19:50.253Z,21.83
2022-11-25T22:22:18.012Z,14.60
2022-11-25T22:24:45.881Z,17.30
2022-11-25T22:27:29.012Z,15.83
2022-11-25T22:29:56.372Z,19.20
2022-11-25T22:32:23.638Z,33.73
2022-11-25T22:34:51.824Z,33.43
2022-11-25T22:37:22.407Z,36.63
2022-11-25T22:39:55.804Z,34.23
2022-11-25T22:42:32.999Z,43.27
2022-11-25T22:45:03.733Z,41.67
2022-11-25T22:47:41.286Z,40.37
2022-11-25T22:50:20.736Z,39.20
2022-11-25T22:52:52.415Z,38.73
2022-11-25T22:55:24.085Z,35.60
2022-11-25T22:57:57.662Z,41.23
2022-11-25T23:00:45.502Z,31.63
2022-11-25T23:03:23.115Z,30.27
2022-11-25T23:05:52.124Z,19.87
2022-11-25T23:08:21.777Z,21.97
2022-11-25T23:10:52.336Z,18.40
2022-11-25T23:13:36.646Z,14.43
2022-11-25T23:16:05.591Z,15.77
2022-11-25T23:18:39.546Z,15.63
2022-11-25T23:21:23.075Z,15.60
2022-11-25T23:23:50.836Z,16.40
2022-11-25T23:26:20.095Z,14.10
2022-11-25T23:28:57.335Z,13.93
2022-11-25T23:31:25.909Z,15.30
2022-11-25T23:33:55.375Z,20.40
2022-11-25T23:36:26.814Z,15.90
2022-11-25T23:38:57.192Z,19.10
2022-11-25T23:41:28.508Z,18.57
2022-11-25T23:43:57.216Z,20.47
2022-11-25T23:46:29.957Z,20.37
2022-11-25T23:49:04.627Z,21.90
2022-11-25T23:51:33.008Z,21.17
2022-11-25T23:54:02.256Z,26.03
2022-11-25T23:56:30.666Z,21.03
2022-11-25T23:58:59.625Z,20.90
